Latest Coastal Weather Observations for Hindmarsh Island

IDS60701

Issued at 7:31 am CDT Monday 2 March 2015 (issued every 10 minutes, with the page automatically refreshed every 10 minutes)

About coastal observations | Map of coastal stations | Coastal observations for SA | Marine services | Other Formats
Station Details ID: 023894 Name: HINDMARSH ISLAND AWS Lat: -35.52 Lon: 138.82 Height: 11.0 m
Data from the previous 72 hours. | See also: Recent months at Hindmarsh Island
Date/Time
CDT
Temp

°C
Wind Pressure Rain
since 9am
mm
Weather Cloud Vis
km
Sea
Height
m
Swell
Dir
 
Speed
knots
Gust
knots
hPa Trend Height
m
Period
s
Dir
02/07:30am 13.1 NNE 5 7 1016.5 - 0.0 - - - - - - -
02/07:00am 11.9 E 8 9 1015.9 - 0.0 - - - - - - -
02/06:30am 12.2 E 6 7 1016.2 - 0.0 - - - - - - -
02/06:00am 12.0 E 7 7 1015.6 - 0.0 - - - - - - -
02/05:30am 12.2 E 7 8 1015.5 - 0.0 - - - - - - -
02/05:00am 12.7 E 8 9 1015.3 - 0.0 - - - - - - -
02/04:30am 13.0 E 9 10 1015.5 - 0.0 - - - - - - -
02/04:00am 13.4 E 8 9 1015.6 - 0.0 - - - - - - -
02/03:30am 15.6 SE 7 9 1016.3 - 0.0 - - - - - - -
02/03:00am 15.8 SE 9 11 1016.2 - 0.0 - - - - - - -
02/02:30am 15.9 SE 9 11 1016.8 - 0.0 - - - - - - -
02/02:00am 16.1 SE 9 11 1017.3 - 0.0 - - - - - - -
02/01:30am 16.2 SE 12 15 1017.3 - 0.0 - - - - - - -
02/01:00am 16.2 SE 11 13 1017.3 - 0.0 - - - - - - -
02/12:30am 16.2 SSE 11 13 1017.1 - 0.0 - - - - - - -
02/12:00am 16.3 SE 13 17 1017.2 - 0.0 - - - - - - -
 
Date/Time
CDT
Temp

°C
Wind Pressure Rain
since 9am
mm
Weather Cloud Vis
km
Sea
Height
m
Swell
Dir
 
Speed
knots
Gust
knots
hPa Trend Height
m
Period
s
Dir
01/11:30pm 16.5 SSE 13 17 1017.9 - 0.0 - - - - - - -
01/11:00pm 16.6 SSE 15 18 1018.0 - 0.0 - - - - - - -
01/10:30pm 16.6 SSE 17 19 1018.0 - 0.0 - - - - - - -
01/10:00pm 16.9 S 18 21 1018.3 - 0.0 - - - - - - -
01/09:30pm 16.8 S 17 21 1018.3 - 0.0 - - - - - - -
01/09:00pm 16.9 S 17 20 1017.9 - 0.0 - - - - - - -
01/08:30pm 17.1 S 16 19 1017.5 - 0.0 - - - - - - -
01/08:00pm 17.0 SSE 17 19 1017.1 - 0.0 - - - - - - -
01/07:30pm 17.4 S 17 20 1017.0 - 0.0 - - - - - - -
01/07:00pm 17.8 S 17 20 1017.0 - 0.0 - - - - - - -
01/06:30pm 18.1 S 19 22 1016.6 - 0.0 - - - - - - -
01/06:00pm 18.3 S 18 22 1016.9 - 0.0 - - - - - - -
01/05:30pm 18.9 S 18 22 1016.8 - 0.0 - - - - - - -
01/05:00pm 20.0 S 18 22 1016.7 - 0.0 - - - - - - -
01/04:30pm 19.4 S 19 21 1016.5 - 0.0 - - - - - - -
01/04:00pm 19.8 S 18 21 1016.8 - 0.0 - - - - - - -
01/03:30pm 20.2 S 17 20 1017.0 - 0.0 - - - - - - -
01/03:00pm 20.4 S 17 20 1017.2 - 0.0 - - - - - - -
01/02:30pm 20.1 S 18 22 1017.2 - 0.0 - - - - - - -
01/02:00pm 20.2 S 18 22 1017.3 - 0.0 - - - - - - -
01/01:30pm 19.7 SSE 18 20 1017.5 - 0.0 - - - - - - -
01/01:00pm 19.3 S 16 20 1017.8 - 0.0 - - - - - - -
01/12:30pm 20.4 SSE 17 21 1017.8 - 0.0 - - - - - - -
01/12:00pm 19.3 SSE 20 23 1017.4 - 0.0 - - - - - - -
01/11:30am 19.0 SSE 17 20 1017.5 - 0.0 - - - - - - -
01/11:00am 19.8 S 16 19 1017.3 - 0.0 - - - - - - -
01/10:30am 20.1 S 16 19 1017.3 - 0.0 - - - - - - -
01/10:00am 19.5 S 17 21 1016.7 - 0.0 - - - - - - -
01/09:30am 19.2 S 18 22 1016.4 - 0.0 - - - - - - -
01/09:00am 18.5 S 17 20 1015.8 - 0.8 - - - - - - -
01/08:30am 18.4 S 17 20 1015.6 - 0.8 - - - - - - -
01/08:00am 17.3 S 17 21 1015.0 - 0.8 - - - - - - -
01/07:30am 17.2 S 19 23 1014.6 - 0.8 - - - - - - -
01/07:00am 17.1 SSW 18 22 1014.1 - 0.8 - - - - - - -
01/06:30am 17.1 SSW 19 23 1013.8 - 0.8 - - - - - - -
01/06:00am 17.2 SSW 22 26 1013.0 - 0.8 - - - - - - -
01/05:30am 17.1 SSW 23 27 1012.8 - 0.8 - - - - - - -
01/05:00am 17.4 SSW 21 25 1012.4 - 0.6 - - - - - - -
01/04:30am 17.3 SSW 23 26 1012.3 - 0.6 - - - - - - -
01/04:00am 17.6 SSW 20 26 1012.1 - 0.6 - - - - - - -
01/03:30am 17.1 SW 20 26 1012.1 - 0.6 - - - - - - -
01/03:00am 17.2 SSW 21 27 1011.8 - 0.6 - - - - - - -
01/02:30am 17.4 SSW 21 27 1011.6 - 0.6 - - - - - - -
01/02:00am 17.7 SSW 22 27 1011.5 - 0.6 - - - - - - -
01/01:30am 17.7 SSW 23 30 1011.8 - 0.6 - - - - - - -
01/01:00am 17.9 SSW 20 25 1011.7 - 0.6 - - - - - - -
01/12:30am 18.1 SSW 21 26 1011.7 - 0.6 - - - - - - -
01/12:00am 18.1 SSW 23 28 1011.2 - 0.6 - - - - - - -
 
Date/Time
CDT
Temp

°C
Wind Pressure Rain
since 9am
mm
Weather Cloud Vis
km
Sea
Height
m
Swell
Dir
 
Speed
knots
Gust
knots
hPa Trend Height
m
Period
s
Dir
28/11:30pm 18.6 SSW 21 25 1011.5 - 0.6 - - - - - - -
28/11:00pm 18.3 SSW 19 23 1011.3 - 0.6 - - - - - - -
28/10:30pm 18.4 SSW 22 27 1011.4 - 0.6 - - - - - - -
28/10:00pm 18.4 SSW 22 26 1011.1 - 0.6 - - - - - - -
28/09:30pm 18.5 SSW 20 25 1010.9 - 0.6 - - - - - - -
28/09:00pm 18.4 SSW 21 26 1010.2 - 0.6 - - - - - - -
28/08:30pm 18.4 SSW 22 26 1009.3 - 0.6 - - - - - - -
28/08:00pm 18.9 SSW 23 28 1008.7 - 0.6 - - - - - - -
28/07:30pm 19.1 SSW 22 26 1008.3 - 0.6 - - - - - - -
28/07:00pm 19.6 SSW 21 25 1007.9 - 0.6 - - - - - - -
28/06:30pm 19.4 SSW 19 23 1007.7 - 0.6 - - - - - - -
28/06:00pm 19.8 SSW 19 23 1006.9 - 0.6 - - - - - - -
28/05:30pm 19.9 SSW 23 27 1006.4 - 0.6 - - - - - - -
28/05:00pm 20.2 SSW 21 25 1006.3 - 0.6 - - - - - - -
28/04:30pm 20.8 SSW 19 24 1005.7 - 0.6 - - - - - - -
28/04:00pm 20.9 SW 17 21 1005.8 - 0.6 - - - - - - -
28/03:30pm 21.4 SSW 21 26 1005.1 - 0.0 - - - - - - -
28/03:00pm 24.3 SW 18 22 1004.8 - 0.0 - - - - - - -
28/02:30pm 23.7 SSW 17 21 1004.6 - 0.0 - - - - - - -
28/02:00pm 25.1 SSW 18 23 1004.2 - 0.0 - - - - - - -
28/01:30pm 24.4 SSW 19 24 1004.2 - 0.0 - - - - - - -
28/01:00pm 25.2 SSW 21 26 1003.9 - 0.0 - - - - - - -
28/12:30pm 27.6 SSW 20 25 1003.6 - 0.0 - - - - - - -
28/12:25pm 27.1 SSW 19 25 1003.5 - 0.0 - - - - - - -
28/12:00pm 32.0 SW 13 18 1003.3 - 0.0 - - - - - - -
28/11:30am 31.9 WNW 15 21 1003.4 - 0.0 - - - - - - -
28/11:05am 32.4 W 15 25 1003.3 - 0.0 - - - - - - -
28/11:00am 33.3 W 13 18 1003.3 - 0.0 - - - - - - -
28/10:30am 32.1 NNE 4 6 1003.4 - 0.0 - - - - - - -
28/10:00am 30.7 N 7 9 1003.6 - 0.0 - - - - - - -
28/09:30am 28.8 N 9 13 1003.6 - 0.0 - - - - - - -
28/09:00am 26.7 N 8 17 1003.6 - 0.0 Fine Clear 12 - - - -
28/08:30am 24.8 NE 14 18 1003.5 - 0.0 - - - - - - -
28/08:00am 23.0 NE 14 17 1003.5 - 0.0 - - - - - - -
28/07:30am 23.2 NNE 16 19 1003.3 - 0.0 - - - - - - -
28/07:00am 22.8 NE 13 16 1003.3 - 0.0 - - - - - - -
28/06:30am 22.6 NNE 10 13 1003.4 - 0.0 - - - - - - -
28/06:00am 22.4 NNE 9 12 1003.4 - 0.0 - - - - - - -
28/05:30am 21.7 NNE 8 11 1003.4 - 0.0 - - - - - - -
28/05:00am 21.3 NNE 8 9 1003.4 - 0.0 - - - - - - -
28/04:30am 20.3 NE 6 7 1003.6 - 0.0 - - - - - - -
28/04:00am 21.2 NE 6 9 1003.9 - 0.0 - - - - - - -
28/03:30am 21.3 NNE 7 11 1004.3 - 0.0 - - - - - - -
28/03:00am 21.0 NNE 8 11 1004.5 - 0.0 - - - - - - -
28/02:30am 21.1 NNE 11 13 1004.9 - 0.0 - - - - - - -
28/02:00am 20.6 NNE 6 7 1005.8 - 0.0 - - - - - - -
28/01:30am 20.5 NNW 4 5 1007.0 - 0.0 - - - - - - -
28/01:00am 20.9 WNW 5 6 1007.5 - 0.0 - - - - - - -
28/12:30am 20.9 NNE 7 8 1007.2 - 0.0 - - - - - - -
28/12:00am 20.3 NNE 8 11 1007.8 - 0.0 - - - - - - -
 
Date/Time
CDT
Temp

°C
Wind Pressure Rain
since 9am
mm
Weather Cloud Vis
km
Sea
Height
m
Swell
Dir
 
Speed
knots
Gust
knots
hPa Trend Height
m
Period
s
Dir
27/11:30pm 20.3 NW 5 6 1008.8 - 0.0 - - - - - - -
27/11:00pm 20.3 W 3 5 1009.2 - 0.0 - - - - - - -
27/10:30pm 20.4 N 4 7 1009.3 - 0.0 - - - - - - -
27/10:00pm 20.3 ESE 5 6 1009.1 - 0.0 - - - - - - -
27/09:30pm 20.2 S 3 6 1009.0 - 0.0 - - - - - - -
27/09:00pm 20.3 S 6 8 1008.1 - 0.0 - - - - - - -
27/08:30pm 20.3 SW 5 8 1008.5 - 0.0 - - - - - - -
27/08:00pm 20.4 SSW 10 11 1008.3 - 0.0 - - - - - - -
27/07:30pm 20.8 SSE 11 14 1007.4 - 0.0 - - - - - - -
27/07:00pm 21.1 SSE 10 12 1007.4 - 0.0 - - - - - - -
27/06:30pm 21.5 SSW 9 11 1007.7 - 0.0 - - - - - - -
27/06:00pm 22.4 S 10 13 1007.0 - 0.0 - - - - - - -
27/05:30pm 23.3 S 14 16 1006.6 - 0.0 - - - - - - -
27/05:00pm 23.6 SSE 13 15 1006.1 - 0.0 - - - - - - -
27/04:30pm 24.6 SSE 15 16 1006.4 - 0.0 - - - - - - -
27/04:00pm 25.3 SSE 15 20 1006.5 - 0.0 - - - - - - -
27/03:57pm 26.1 SSE 14 20 1006.4 - 0.0 - - - - - - -
27/03:30pm 31.6 SSE 12 14 1006.5 - 0.0 - - - - - - -
27/03:00pm 33.3 S 8 15 1006.6 - 0.0 - - - - - - -
27/02:30pm 33.0 NE 9 14 1006.9 - 0.0 - - - - - - -
27/02:00pm 32.2 NE 11 15 1007.2 - 0.0 - - - - - - -
27/01:30pm 31.5 NE 9 13 1007.6 - 0.0 - - - - - - -
27/01:00pm 31.4 NE 9 13 1008.2 - 0.0 - - - - - - -
27/12:30pm 29.8 NE 8 11 1008.8 - 0.0 - - - - - - -
27/12:00pm 27.5 ENE 8 11 1009.4 - 0.0 - - - - - - -
27/11:30am 26.1 ENE 11 14 1009.5 - 0.0 - - - - - - -
27/11:00am 24.9 NE 11 14 1010.0 - 0.0 - - - - - - -
27/10:30am 23.6 NNE 12 15 1010.0 - 0.0 - - - - - - -
27/10:00am 22.4 NNE 11 15 1010.4 - 0.0 - - - - - - -
27/09:30am 21.4 NNE 11 14 1010.8 - 0.0 - - - - - - -
27/09:00am 20.3 ENE 10 13 1010.8 - 0.0 Fine Mostly cloudy 14 - - - -
27/08:30am 18.8 NE 7 9 1011.2 - 0.0 - - - - - - -
27/08:00am 17.0 NNE 6 8 1010.9 - 0.0 - - - - - - -

Other Formats:

Comma delimited format used in spreadsheet applications
http://www.bom.gov.au/fwo/IDS60701/IDS60701.94677.axf

JavaScript Object Notation format (JSON) in row-major order
http://www.bom.gov.au/fwo/IDS60701/IDS60701.94677.json